Etusivu
METAR-TAF:

METAR-TAF

Lentoasemat :

Gafsa, Tunisia

Leveyspiiri: 34-25N, Pituuspiiri: 008-49E, korkeus merenpinnasta: 313 m

Tämänhetkinen sää

Tämä raportti tehtiin 52 minuuttia sitten, kello 04.00 UTC
Tuuli 8 kn pohjoisesta/koillisesta
Lämpötila 17°C
Kosteus 88%
Ilmanpaine 1015 hPa
Näkyvyys 10 km tai enemmän
Muutamia pilviä 2600 ft:n korkeudessa

METAR: DTTF 310400Z 02008KT 9999 FEW026 17/15 Q1015 NOSIG

Aika: 05:52 (04:52 UTC)

Sääennuste

Tämä raportti tehtiin 1 tunti ja 52 minuuttia sitten, kello 03.00 UTC
Ennuste voimassa 31. päivästä klo 04 UTC - 31. päivään klo 13 UTC
Tuuli 10 kn koillisesta
Näkyvyys 10 km tai enemmän
Muutamia pilviä 2600 ft:n korkeudessa
Tulossa
31. päivästä klo 10 UTC - 31. päivään klo 12 UTC
Tuuli 4 kn idästä/kaakosta

TAF: DTTF 310300Z 3104/3113 04010KT 9999 FEW026 BECMG 3110/3112 12004KT

Säähavainnot ja -ennusteet yli 4000 lentoasemalta (METAR- ja TAF-raportit).

Käytössä olevat sääasemat on merkitty karttaan keltaisilla ja punaisilla pisteillä.

Aseta hiiri pisteen päälle nähdäksesi sääaseman nimen.

Klikkaa sitten nähdäksesi säähavainnot ja -ennusteet.

Kartan vaihtaminen: klikkaa mustalla rastilla varustettuja vihreitä pisteitä, niin voit zoomata sisään; viivalla varustettua vihreää pistettä, niin voit zoomata ulos tai vihreitä nuolia, niin pääset viereisille kartoille.


METAR-TAF: